Time;durP1;ratioP1;P1;durP2;ratioP2;P2;SDS_P1;SDS_P2;PMS_P1;PMS_P2;Temp;Humidity;BMP_temperature;BMP_pressure;BME280_temperature;BME280_humidity;BME280_pressure;Samples;Min_cycle;Max_cycle;Signal;HPM_P1;HPM_P2
2022/12/21 00:00:07;;;;;;;;;67.00;54.25;;;;;5.79;47.05;100146.69;5010325;28;8864;-76
2022/12/21 00:03:01;;;;;;;;;65.50;53.00;;;;;6.08;46.64;100146.66;4968371;28;8858;-78
2022/12/21 00:05:32;;;;;;;;;65.50;53.25;;;;;6.25;45.95;100141.94;4958599;28;8912;-76
2022/12/21 00:08:00;;;;;;;;;62.50;48.50;;;;;6.42;45.75;100140.66;5024753;28;9607;-78
2022/12/21 00:10:29;;;;;;;;;63.50;52.50;;;;;6.40;45.79;100142.31;5007087;28;8903;-75
2022/12/21 00:12:57;;;;;;;;;65.50;52.00;;;;;6.30;46.06;100140.34;4990706;28;8862;-77
2022/12/21 00:15:26;;;;;;;;;68.50;54.00;;;;;6.49;45.53;100144.28;4990357;28;8832;-77
2022/12/21 00:17:55;;;;;;;;;66.50;56.00;;;;;6.56;45.43;100142.72;5026235;28;8863;-78
2022/12/21 00:20:24;;;;;;;;;72.00;56.50;;;;;6.63;45.24;100127.38;5009878;28;8902;-78
2022/12/21 00:22:53;;;;;;;;;56.25;49.25;;;;;6.78;44.33;100125.97;4992146;28;8989;-77
2022/12/21 00:25:22;;;;;;;;;62.50;52.75;;;;;6.91;44.66;100129.75;5010097;28;8871;-77
2022/12/21 00:27:51;;;;;;;;;68.00;55.50;;;;;6.97;43.96;100127.28;5025756;28;8867;-77
2022/12/21 00:30:19;;;;;;;;;64.50;52.75;;;;;7.05;44.27;100119.69;4993081;28;9048;-78
2022/12/21 00:32:48;;;;;;;;;74.00;57.00;;;;;6.11;46.24;100126.03;5009760;28;8871;-77
2022/12/21 00:35:16;;;;;;;;;69.25;55.00;;;;;5.79;47.28;100133.75;5009797;28;8862;-79
2022/12/21 00:37:46;;;;;;;;;66.50;53.25;;;;;6.28;45.95;100125.63;5008758;28;8844;-80
2022/12/21 00:40:16;;;;;;;;;67.00;52.25;;;;;6.54;45.67;100119.38;5010002;28;8860;-77
2022/12/21 00:42:45;;;;;;;;;70.00;55.75;;;;;6.69;45.19;100113.69;4992929;28;8855;-76
2022/12/21 00:45:13;;;;;;;;;67.50;52.50;;;;;6.87;44.90;100120.16;5009305;28;8953;-75
2022/12/21 00:47:43;;;;;;;;;72.50;57.50;;;;;6.90;44.83;100110.75;5025324;28;8856;-76
2022/12/21 00:50:12;;;;;;;;;62.25;53.75;;;;;7.00;44.71;100112.69;5025636;28;8887;-77
2022/12/21 00:52:40;;;;;;;;;73.75;56.50;;;;;6.75;44.94;100105.19;5009369;28;8864;-78
2022/12/21 00:55:10;;;;;;;;;63.00;53.75;;;;;6.90;44.12;100117.63;5023831;28;8848;-74
2022/12/21 00:57:40;;;;;;;;;67.50;55.25;;;;;6.76;45.22;100109.53;5008607;28;8852;-76
2022/12/21 01:00:10;;;;;;;;;67.00;53.00;;;;;6.94;44.23;100094.41;5025309;28;8883;-79
2022/12/21 01:02:38;;;;;;;;;70.50;56.00;;;;;7.02;44.07;100095.44;4992141;28;8843;-76
2022/12/21 01:05:09;;;;;;;;;72.00;59.00;;;;;7.14;43.76;100094.84;4961192;28;8891;-76
2022/12/21 01:07:37;;;;;;;;;59.75;49.75;;;;;7.27;43.79;100093.41;4992298;28;8848;-76
2022/12/21 01:10:06;;;;;;;;;71.75;57.00;;;;;7.20;43.92;100097.59;5008420;28;8852;-78
2022/12/21 01:12:35;;;;;;;;;72.50;57.25;;;;;7.34;43.97;100097.88;5025805;28;8868;-74
2022/12/21 01:15:07;;;;;;;;;75.50;56.50;;;;;7.48;43.73;100086.91;4976251;28;8893;-80
2022/12/21 01:17:35;;;;;;;;;71.25;57.75;;;;;7.55;43.28;100091.41;5008531;28;9003;-74
2022/12/21 01:20:06;;;;;;;;;67.75;55.50;;;;;7.59;43.58;100088.00;4981789;28;8864;-75
2022/12/21 01:22:39;;;;;;;;;74.00;56.75;;;;;7.28;43.68;100089.97;4963859;28;8997;-76
2022/12/21 01:25:08;;;;;;;;;73.25;58.75;;;;;6.74;45.17;100083.56;4998346;28;8857;-76
2022/12/21 01:27:37;;;;;;;;;73.50;60.25;;;;;6.71;44.89;100090.38;5042288;28;8875;-76
2022/12/21 01:30:08;;;;;;;;;77.00;60.00;;;;;6.47;45.93;100088.97;5026549;28;8950;-78
2022/12/21 01:32:38;;;;;;;;;76.50;60.25;;;;;6.35;46.56;100086.06;5026467;28;8998;-76
2022/12/21 01:35:07;;;;;;;;;73.00;57.00;;;;;6.33;46.89;100074.78;5026509;28;8867;-76
2022/12/21 01:37:36;;;;;;;;;68.75;56.00;;;;;6.20;47.04;100068.41;5026901;28;8852;-76
2022/12/21 01:40:05;;;;;;;;;71.50;56.50;;;;;6.28;46.53;100063.47;5023596;28;8886;-78
2022/12/21 01:42:33;;;;;;;;;69.75;58.50;;;;;6.49;45.97;100055.34;4973496;28;8892;-76
2022/12/21 01:45:14;;;;;;;;;63.75;50.00;;;;;6.33;46.06;100061.84;5008079;28;9655;-76
2022/12/21 01:47:46;;;;;;;;;73.50;60.50;;;;;5.95;46.93;100051.34;5021818;28;8862;-77
2022/12/21 01:50:35;;;;;;;;;68.00;56.00;;;;;5.51;48.17;100059.66;5005675;28;8848;-77
2022/12/21 01:53:10;;;;;;;;;72.00;57.25;;;;;4.43;51.34;100068.47;5008670;28;8848;-75
2022/12/21 01:55:40;;;;;;;;;71.25;57.50;;;;;3.89;53.54;100076.94;4943110;28;8953;-76
2022/12/21 01:58:09;;;;;;;;;73.50;58.50;;;;;4.01;53.66;100084.25;5041687;28;8879;-76
2022/12/21 02:00:40;;;;;;;;;73.00;59.75;;;;;4.38;52.14;100068.28;5008490;28;8852;-77
2022/12/21 02:03:14;;;;;;;;;70.75;52.00;;;;;4.66;51.67;100079.53;5025036;28;8975;-78
2022/12/21 02:05:47;;;;;;;;;70.50;57.50;;;;;4.79;51.21;100076.50;5008289;28;8856;-76
2022/12/21 02:08:16;;;;;;;;;74.50;56.00;;;;;5.21;49.73;100057.94;5027480;28;8903;-77
2022/12/21 02:10:46;;;;;;;;;65.50;51.00;;;;;5.59;48.99;100057.28;5011900;28;8958;-79
2022/12/21 02:13:15;;;;;;;;;74.00;60.50;;;;;5.92;48.29;100048.69;5027604;28;8880;-76
2022/12/21 02:16:01;;;;;;;;;65.50;51.50;;;;;6.28;47.59;100046.19;5006935;28;8903;-75
2022/12/21 02:18:48;;;;;;;;;76.00;58.25;;;;;6.44;47.13;100043.13;5014464;28;8877;-76
2022/12/21 02:21:25;;;;;;;;;69.75;58.00;;;;;6.23;47.72;100043.47;4998119;28;8884;-75
2022/12/21 02:24:48;;;;;;;;;69.50;57.50;;;;;6.59;46.79;100021.88;4976184;28;9658;-75
2022/12/21 02:27:44;;;;;;;;;67.50;55.25;;;;;6.80;46.26;100028.41;4924887;28;8866;-75
2022/12/21 02:30:17;;;;;;;;;76.67;59.33;;;;;6.81;45.85;100022.38;4912404;29;8967;-76
2022/12/21 02:33:19;;;;;;;;;73.75;59.25;;;;;7.06;45.80;100012.56;4911982;29;8978;-76
2022/12/21 02:36:04;;;;;;;;;80.67;62.00;;;;;7.07;45.28;100004.81;4855812;29;8892;-77
2022/12/21 02:38:46;;;;;;;;;77.67;60.67;;;;;7.18;45.72;100010.19;4840573;29;9036;-77
2022/12/21 02:41:30;;;;;;;;;82.00;62.67;;;;;7.25;45.14;100011.22;4840459;29;8991;-75
2022/12/21 02:44:14;;;;;;;;;73.00;60.00;;;;;7.22;45.48;100002.53;4851314;29;9194;-76
2022/12/21 02:47:03;;;;;;;;;79.33;63.00;;;;;7.23;45.37;100003.41;4840279;29;9392;-74
2022/12/21 02:49:40;;;;;;;;;67.67;56.67;;;;;7.17;45.21;100001.56;4877355;29;9289;-74
2022/12/21 02:52:13;;;;;;;;;72.00;56.67;;;;;7.12;44.80;99994.50;4815610;29;9383;-75
2022/12/21 02:54:43;;;;;;;;;82.67;65.00;;;;;7.16;45.39;99988.53;4832942;29;9170;-75
2022/12/21 02:57:12;;;;;;;;;78.67;62.33;;;;;7.02;45.58;99988.28;4876974;29;9356;-77
2022/12/21 02:59:46;;;;;;;;;87.33;65.33;;;;;6.21;47.62;99987.31;4861716;29;9196;-77
2022/12/21 03:02:46;;;;;;;;;81.67;62.67;;;;;5.26;50.27;99991.72;4860261;29;9227;-77
2022/12/21 03:05:40;;;;;;;;;78.25;60.75;;;;;5.47;49.69;99990.56;4824902;29;9037;-76
2022/12/21 03:08:24;;;;;;;;;73.00;59.33;;;;;5.65;49.18;99993.66;4873455;29;8913;-74
2022/12/21 03:10:59;;;;;;;;;68.50;56.25;;;;;6.02;48.57;99984.28;4892464;29;8957;-78
2022/12/21 03:13:37;;;;;;;;;68.25;56.50;;;;;6.38;47.41;99985.13;4926430;28;8873;-76
2022/12/21 03:16:16;;;;;;;;;72.00;57.00;;;;;6.59;46.84;99984.75;4918070;28;8866;-77
2022/12/21 03:18:56;;;;;;;;;74.75;60.00;;;;;6.84;47.22;99970.59;4951504;28;8863;-75
2022/12/21 03:21:35;;;;;;;;;74.33;58.00;;;;;7.02;46.60;99965.81;4968735;28;9668;-75
2022/12/21 03:24:11;;;;;;;;;75.33;61.00;;;;;7.09;46.17;99972.00;4968542;28;9045;-76
2022/12/21 03:26:47;;;;;;;;;82.00;63.33;;;;;7.22;45.49;99974.00;4968797;28;9301;-78
2022/12/21 03:29:20;;;;;;;;;81.33;64.33;;;;;7.26;45.31;99969.75;4983962;28;9356;-77
2022/12/21 03:31:55;;;;;;;;;75.25;61.00;;;;;7.36;45.84;99968.19;4951797;28;10067;-77
2022/12/21 03:34:27;;;;;;;;;78.33;62.67;;;;;7.48;45.41;99964.97;4967673;28;8856;-80
2022/12/21 03:37:05;;;;;;;;;78.00;63.00;;;;;7.52;45.04;99967.63;4976711;28;9104;-76
2022/12/21 03:39:39;;;;;;;;;79.00;63.67;;;;;7.58;45.44;99967.75;4951952;28;9285;-77
2022/12/21 03:42:14;;;;;;;;;76.33;61.00;;;;;7.67;44.93;99961.84;4978193;28;9234;-76
2022/12/21 03:44:51;;;;;;;;;78.33;63.33;;;;;7.84;44.46;99948.28;5009701;28;9171;-76
2022/12/21 03:47:27;;;;;;;;;74.00;60.00;;;;;7.81;44.98;99947.41;5008434;28;9204;-78
2022/12/21 03:50:00;;;;;;;;;75.67;62.00;;;;;7.87;44.92;99948.34;5007902;28;8920;-77
2022/12/21 03:52:37;;;;;;;;;77.00;63.00;;;;;7.93;44.45;99953.66;5014743;28;9017;-79
2022/12/21 03:55:10;;;;;;;;;79.33;63.67;;;;;7.87;44.20;99944.03;5009794;28;9223;-79
2022/12/21 03:57:41;;;;;;;;;71.00;57.33;;;;;7.68;44.51;99939.38;5009600;28;9070;-74
2022/12/21 04:00:11;;;;;;;;;81.33;65.00;;;;;7.75;44.46;99938.59;5024473;28;9247;-78
2022/12/21 04:02:47;;;;;;;;;76.67;57.67;;;;;7.81;44.43;99933.53;5007952;28;9027;-75
2022/12/21 04:05:19;;;;;;;;;80.33;63.00;;;;;7.83;44.46;99934.44;4991518;28;9262;-76
2022/12/21 04:07:52;;;;;;;;;80.00;64.67;;;;;7.88;44.79;99925.03;5024480;28;9131;-78
2022/12/21 04:10:23;;;;;;;;;82.00;65.33;;;;;7.83;44.24;99921.47;5041046;28;9187;-76
2022/12/21 04:12:50;;;;;;;;;79.67;65.33;;;;;7.73;43.97;99924.72;5009787;28;9166;-76
2022/12/21 04:15:21;;;;;;;;;85.00;66.67;;;;;6.67;47.07;99930.50;5007628;28;9279;-75
2022/12/21 04:17:51;;;;;;;;;81.33;62.33;;;;;5.97;49.22;99928.94;5024852;28;9336;-78
2022/12/21 04:20:21;;;;;;;;;78.33;63.67;;;;;5.56;50.29;99925.28;5008102;28;9191;-75
2022/12/21 04:28:26;;;;;;;;;83.00;63.67;;;;;6.51;47.80;99914.63;5027294;28;9093;-78
2022/12/21 04:31:15;;;;;;;;;76.50;60.00;;;;;6.69;46.98;99905.47;5010552;28;9193;-76
2022/12/21 04:33:43;;;;;;;;;73.50;59.00;;;;;6.84;47.19;99898.00;5026702;28;8957;-77
2022/12/21 04:39:00;;;;;;;;;71.00;58.25;;;;;7.05;46.32;99900.19;5008282;28;9034;-74
2022/12/21 04:41:28;;;;;;;;;79.50;57.25;;;;;7.06;46.43;99898.47;5023033;28;8874;-76
2022/12/21 04:43:57;;;;;;;;;72.00;59.75;;;;;6.81;46.75;99898.84;5039587;28;8881;-77
2022/12/21 04:46:26;;;;;;;;;71.67;58.00;;;;;6.51;47.33;99900.81;4990713;28;8877;-76
2022/12/21 04:48:55;;;;;;;;;70.00;57.00;;;;;5.83;49.56;99906.97;5008681;28;9081;-77
2022/12/21 04:51:25;;;;;;;;;82.67;67.33;;;;;5.69;50.13;99903.16;4990919;28;8855;-76
2022/12/21 04:53:54;;;;;;;;;75.75;61.00;;;;;6.13;48.90;99906.00;5020762;28;10389;-74
2022/12/21 04:56:24;;;;;;;;;66.50;55.50;;;;;6.29;48.78;99902.03;5008329;28;9612;-76
2022/12/21 04:58:53;;;;;;;;;37.00;32.33;;;;;6.01;49.21;99901.38;5025875;28;8847;-75
2022/12/21 05:01:22;;;;;;;;;79.00;64.67;;;;;5.74;49.93;99897.25;5019590;28;9203;-74
2022/12/21 05:03:53;;;;;;;;;81.33;64.67;;;;;6.10;48.87;99905.91;4957963;28;9131;-77
2022/12/21 05:06:21;;;;;;;;;95.50;75.25;;;;;6.29;48.77;99907.22;5007086;28;9300;-76
2022/12/21 05:08:50;;;;;;;;;88.25;69.75;;;;;6.46;47.96;99905.00;4989994;28;10045;-75
2022/12/21 05:11:21;;;;;;;;;92.25;71.25;;;;;6.59;47.68;99897.50;5006894;28;9630;-76
2022/12/21 05:13:52;;;;;;;;;100.75;81.25;;;;;6.70;48.00;99889.09;5006813;28;9664;-78
2022/12/21 05:16:22;;;;;;;;;89.50;71.50;;;;;6.75;47.48;99890.94;4990195;28;10114;-76
2022/12/21 05:18:53;;;;;;;;;83.00;64.00;;;;;6.81;47.13;99887.59;5006940;28;10640;-74
2022/12/21 05:21:21;;;;;;;;;79.67;60.33;;;;;6.89;46.96;99882.56;5008020;28;9266;-76
2022/12/21 05:23:50;;;;;;;;;88.67;70.00;;;;;6.94;46.80;99878.34;5007989;28;9356;-77
2022/12/21 05:26:19;;;;;;;;;86.00;64.75;;;;;6.98;47.04;99868.06;5008072;28;9599;-77
2022/12/21 05:28:48;;;;;;;;;79.00;62.33;;;;;7.04;46.99;99869.91;5023290;28;9756;-76
2022/12/21 05:31:19;;;;;;;;;104.00;85.75;;;;;6.99;46.80;99871.53;5007846;28;9328;-78
2022/12/21 05:33:48;;;;;;;;;102.00;80.75;;;;;5.99;49.51;99896.19;5006741;28;10651;-75
2022/12/21 05:36:17;;;;;;;;;101.25;77.25;;;;;5.21;51.89;99895.06;4990222;28;10520;-75
2022/12/21 05:38:46;;;;;;;;;87.00;67.75;;;;;4.95;52.87;99902.09;5007904;28;10001;-75
2022/12/21 05:41:16;;;;;;;;;91.50;71.50;;;;;4.73;53.65;99895.47;5006776;28;9487;-78
2022/12/21 05:43:45;;;;;;;;;86.67;69.00;;;;;4.81;53.03;99901.72;5026589;28;9936;-77
2022/12/21 05:46:14;;;;;;;;;79.67;64.00;;;;;5.20;52.03;99897.63;5027194;28;9429;-76
2022/12/21 05:48:55;;;;;;;;;83.67;66.67;;;;;5.63;51.00;99897.03;4993757;28;9180;-77
2022/12/21 05:51:24;;;;;;;;;92.00;72.75;;;;;5.91;50.29;99894.22;5012391;28;9436;-75
2022/12/21 05:53:54;;;;;;;;;91.25;72.00;;;;;5.28;52.03;99893.53;5034457;28;9804;-77
2022/12/21 05:56:22;;;;;;;;;93.00;71.75;;;;;5.56;51.59;99894.25;5030194;28;10060;-74
2022/12/21 05:58:51;;;;;;;;;87.00;69.00;;;;;5.87;50.24;99888.09;5030066;28;9648;-76
2022/12/21 06:01:20;;;;;;;;;89.33;68.33;;;;;6.09;50.06;99893.78;5030448;28;9460;-77
2022/12/21 06:03:49;;;;;;;;;84.50;67.75;;;;;6.26;49.19;99892.50;5032133;28;9484;-75
2022/12/21 06:06:19;;;;;;;;;87.00;67.25;;;;;5.86;50.06;99897.59;5015026;28;9644;-75
2022/12/21 06:08:48;;;;;;;;;86.75;66.75;;;;;5.97;50.34;99891.81;5033255;28;9799;-76
2022/12/21 06:11:21;;;;;;;;;87.75;67.00;;;;;6.18;49.29;99892.31;5033693;28;9575;-77
2022/12/21 06:13:50;;;;;;;;;95.00;73.75;;;;;6.37;49.33;99884.94;5015860;28;9426;-77
2022/12/21 06:16:21;;;;;;;;;92.50;71.75;;;;;6.51;48.59;99888.72;5014250;28;10120;-77
2022/12/21 06:18:53;;;;;;;;;95.25;72.75;;;;;6.52;48.82;99886.97;5034486;28;9770;-77
2022/12/21 06:21:23;;;;;;;;;93.25;72.00;;;;;6.36;49.14;99884.06;5030191;28;9713;-74
2022/12/21 06:23:52;;;;;;;;;89.25;67.25;;;;;6.14;49.62;99895.66;5011991;28;9969;-77
2022/12/21 06:26:21;;;;;;;;;101.00;79.00;;;;;5.91;50.12;99895.09;5030373;28;9672;-78
2022/12/21 06:28:51;;;;;;;;;96.00;71.33;;;;;5.88;50.35;99897.63;5029716;28;10223;-78
2022/12/21 06:31:21;;;;;;;;;94.75;74.50;;;;;6.18;49.64;99910.44;5025161;28;9462;-75
2022/12/21 06:33:50;;;;;;;;;94.75;73.75;;;;;6.45;49.35;99906.72;5028297;28;9798;-78
2022/12/21 06:36:18;;;;;;;;;96.00;76.50;;;;;6.60;48.34;99913.94;5045160;28;9954;-80
2022/12/21 06:38:49;;;;;;;;;103.50;80.50;;;;;6.45;49.66;99904.13;5014868;28;10102;-77
2022/12/21 06:41:19;;;;;;;;;94.00;74.00;;;;;6.68;49.10;99904.63;5029738;28;10309;-77
2022/12/21 06:43:48;;;;;;;;;90.50;70.00;;;;;6.56;48.99;99913.00;5030577;28;9976;-79
2022/12/21 06:46:18;;;;;;;;;93.00;70.50;;;;;6.75;48.85;99903.03;5047953;28;9901;-76
2022/12/21 06:48:50;;;;;;;;;101.00;81.75;;;;;6.73;48.15;99897.81;5048367;28;10013;-77
2022/12/21 06:51:20;;;;;;;;;100.75;85.75;;;;;6.97;48.34;99894.81;5064544;28;9970;-78
2022/12/21 06:53:52;;;;;;;;;94.75;75.75;;;;;6.98;48.08;99888.81;5046598;28;10346;-78
2022/12/21 06:56:24;;;;;;;;;95.00;71.25;;;;;7.21;48.19;99885.78;5029921;28;10129;-76
2022/12/21 06:58:55;;;;;;;;;100.50;82.75;;;;;7.27;47.63;99896.25;5048186;28;9969;-77
2022/12/21 07:01:25;;;;;;;;;65.00;50.50;;;;;7.41;47.59;99897.38;5027027;28;10691;-77
2022/12/21 07:03:55;;;;;;;;;105.25;89.75;;;;;7.55;47.34;99902.81;5006455;28;11169;-79
2022/12/21 07:06:26;;;;;;;;;108.00;94.00;;;;;7.66;46.50;99892.63;4971866;28;10726;-76
2022/12/21 07:08:57;;;;;;;;;104.50;82.75;;;;;7.82;46.34;99888.53;4968758;28;11211;-78
2022/12/21 07:11:28;;;;;;;;;123.25;109.00;;;;;7.93;46.55;99891.31;4968716;28;12042;-79
2022/12/21 07:13:57;;;;;;;;;113.00;100.25;;;;;7.98;46.05;99890.53;4939701;28;11693;-79
2022/12/21 07:16:26;;;;;;;;;120.25;109.25;;;;;8.10;46.10;99897.63;4955277;28;11417;-78
2022/12/21 07:18:55;;;;;;;;;115.75;99.25;;;;;8.21;45.46;99892.63;4971468;28;12892;-79
2022/12/21 07:21:23;;;;;;;;;109.00;101.25;;;;;8.33;45.52;99890.19;4971704;28;11303;-79
2022/12/21 07:23:52;;;;;;;;;118.00;108.25;;;;;8.36;45.11;99890.22;4971291;28;11699;-78
2022/12/21 07:26:24;;;;;;;;;114.25;102.00;;;;;8.49;44.96;99888.72;4955053;28;11674;-78
2022/12/21 07:28:55;;;;;;;;;119.75;105.75;;;;;8.57;44.88;99891.41;4971309;28;11607;-78
2022/12/21 07:31:27;;;;;;;;;110.75;101.00;;;;;8.55;44.63;99891.38;4970386;28;11733;-79
2022/12/21 07:33:56;;;;;;;;;118.00;107.50;;;;;8.49;44.84;99896.50;4955398;28;11637;-78
2022/12/21 07:36:25;;;;;;;;;123.25;110.50;;;;;8.64;44.32;99890.66;4987972;28;12494;-78
2022/12/21 07:38:54;;;;;;;;;133.00;118.25;;;;;8.72;44.69;99894.19;4991013;28;11587;-77
2022/12/21 07:41:24;;;;;;;;;128.50;118.00;;;;;8.83;44.46;99896.06;5041539;28;11687;-77
2022/12/21 07:43:53;;;;;;;;;112.50;107.50;;;;;8.83;44.21;99890.84;5008603;28;11612;-78
2022/12/21 07:46:38;;;;;;;;;130.50;115.50;;;;;8.94;44.44;99889.25;4992602;28;12340;-78
2022/12/21 07:49:09;;;;;;;;;123.50;115.25;;;;;9.07;44.40;99882.47;5023374;28;11672;-79
2022/12/21 07:51:38;;;;;;;;;126.75;113.00;;;;;9.10;43.81;99874.69;5045245;28;11615;-78
2022/12/21 07:54:06;;;;;;;;;129.75;111.00;;;;;9.10;43.88;99883.38;5027866;28;11647;-79
2022/12/21 07:56:36;;;;;;;;;127.00;110.75;;;;;9.18;43.85;99881.72;5028390;28;11605;-79
2022/12/21 07:59:05;;;;;;;;;99.25;78.00;;;;;9.17;44.07;99879.97;5029584;28;11742;-78
2022/12/21 08:01:34;;;;;;;;;132.25;121.25;;;;;9.30;43.83;99886.19;5011849;28;11693;-78
2022/12/21 08:04:03;;;;;;;;;122.00;109.25;;;;;9.49;43.67;99881.13;5027984;28;11627;-79
2022/12/21 08:06:31;;;;;;;;;127.50;119.75;;;;;9.67;43.70;99880.44;5046452;28;12345;-78
2022/12/21 08:09:01;;;;;;;;;117.00;108.00;;;;;9.84;43.15;99877.97;5029887;28;11660;-77
2022/12/21 08:11:29;;;;;;;;;140.00;122.00;;;;;9.55;43.72;99873.41;5064267;28;11655;-79
2022/12/21 08:14:00;;;;;;;;;142.75;130.00;;;;;9.60;43.66;99873.44;5047719;28;11615;-77
2022/12/21 08:16:28;;;;;;;;;128.00;118.00;;;;;9.80;43.12;99876.22;5031743;28;11698;-78
2022/12/21 08:18:58;;;;;;;;;127.00;117.50;;;;;9.95;43.33;99878.94;5047287;28;11611;-78
2022/12/21 08:21:26;;;;;;;;;122.50;107.50;;;;;10.14;42.85;99878.19;5014081;28;11827;-79
2022/12/21 08:23:55;;;;;;;;;127.75;115.00;;;;;10.28;42.73;99869.59;5013890;28;11538;-79
2022/12/21 08:26:23;;;;;;;;;118.00;109.00;;;;;10.47;42.52;99883.63;5027637;28;11689;-77
2022/12/21 08:28:52;;;;;;;;;119.50;110.50;;;;;10.60;42.16;99876.75;5010181;28;11580;-79
2022/12/21 08:31:30;;;;;;;;;118.25;104.75;;;;;10.78;41.68;99873.34;5025943;28;11594;-77
2022/12/21 08:33:59;;;;;;;;;106.00;99.00;;;;;10.84;41.93;99875.97;4978166;28;11559;-80
2022/12/21 08:36:27;;;;;;;;;102.50;91.00;;;;;10.96;41.71;99878.63;5010042;28;12017;-79
2022/12/21 08:38:57;;;;;;;;;98.25;88.25;;;;;11.09;41.59;99876.94;5026053;28;10995;-76
2022/12/21 08:41:37;;;;;;;;;98.25;83.50;;;;;11.22;41.27;99870.00;4993036;28;10819;-79
2022/12/21 08:44:06;;;;;;;;;100.50;87.00;;;;;11.37;40.55;99872.63;4993038;28;10600;-79
2022/12/21 08:46:36;;;;;;;;;110.25;99.75;;;;;11.36;41.17;99875.22;5009486;28;11015;-79
2022/12/21 08:49:05;;;;;;;;;108.75;102.50;;;;;11.41;40.34;99863.06;5009248;28;11629;-78
2022/12/21 08:51:34;;;;;;;;;117.00;109.25;;;;;11.52;40.81;99866.56;5025929;28;11545;-77
2022/12/21 08:54:03;;;;;;;;;100.50;89.75;;;;;11.61;41.10;99866.56;5013509;28;11553;-79
2022/12/21 08:56:32;;;;;;;;;80.50;64.00;;;;;11.73;39.33;99868.31;5028897;28;10979;-78
2022/12/21 08:59:02;;;;;;;;;100.50;89.50;;;;;11.81;40.38;99861.31;5045742;28;9637;-78
2022/12/21 09:01:31;;;;;;;;;85.75;68.75;;;;;11.83;39.96;99859.63;5045557;28;11555;-79
2022/12/21 09:04:03;;;;;;;;;116.50;109.50;;;;;11.93;39.50;99854.38;5046004;28;9886;-79
2022/12/21 09:06:32;;;;;;;;;104.25;96.25;;;;;12.00;39.23;99861.34;5028871;28;11567;-79
2022/12/21 09:09:01;;;;;;;;;96.50;83.25;;;;;11.95;39.22;99858.75;5029012;28;11190;-79
2022/12/21 09:11:30;;;;;;;;;103.75;95.50;;;;;12.03;39.35;99854.38;5045755;28;10388;-78
2022/12/21 09:14:14;;;;;;;;;90.00;73.00;;;;;12.11;39.66;99853.50;5029134;28;11241;-77
2022/12/21 09:16:42;;;;;;;;;101.25;90.00;;;;;12.23;38.62;99853.47;5044646;28;11666;-77
2022/12/21 09:19:13;;;;;;;;;100.75;90.50;;;;;12.30;39.29;99849.97;4993035;28;11113;-77
2022/12/21 09:21:42;;;;;;;;;104.50;95.00;;;;;12.39;39.20;99833.38;5007987;28;11545;-79
2022/12/21 09:24:11;;;;;;;;;104.75;91.25;;;;;12.44;38.34;99840.34;4958396;28;10979;-77
2022/12/21 09:26:41;;;;;;;;;102.25;93.50;;;;;12.54;38.42;99835.06;4990837;28;11164;-79
2022/12/21 09:29:10;;;;;;;;;103.50;93.50;;;;;12.56;38.54;99830.72;5007238;28;11245;-77
2022/12/21 09:31:39;;;;;;;;;103.50;89.50;;;;;12.64;38.51;99831.53;5007121;28;11457;-80
2022/12/21 09:34:08;;;;;;;;;106.25;98.50;;;;;12.75;38.20;99826.25;5012341;28;11063;-81
2022/12/21 09:36:38;;;;;;;;;112.75;99.50;;;;;12.82;38.50;99833.22;5026597;28;11587;-80
2022/12/21 09:39:27;;;;;;;;;99.50;90.75;;;;;12.86;38.02;99825.31;5028193;28;11593;-78
2022/12/21 09:42:20;;;;;;;;;99.25;90.00;;;;;13.08;37.95;99814.75;5026241;28;11299;-77
2022/12/21 09:45:03;;;;;;;;;102.25;93.25;;;;;13.07;38.31;99810.38;5024671;28;11107;-78
2022/12/21 09:47:40;;;;;;;;;108.00;99.25;;;;;13.00;37.82;99809.53;5028080;28;11873;-78
2022/12/21 09:50:17;;;;;;;;;103.25;93.75;;;;;13.03;37.65;99813.91;5045088;28;11406;-79
2022/12/21 09:52:51;;;;;;;;;113.50;98.50;;;;;13.09;37.69;99806.00;5045039;28;12107;-79
2022/12/21 09:55:25;;;;;;;;;111.50;98.50;;;;;13.02;37.90;99802.56;5044899;28;11364;-77
2022/12/21 09:58:02;;;;;;;;;121.50;106.25;;;;;13.05;37.48;99805.13;4995352;28;11527;-76
2022/12/21 10:00:35;;;;;;;;;117.75;107.50;;;;;13.17;37.54;99796.31;5012277;28;11539;-80
2022/12/21 10:03:34;;;;;;;;;126.50;109.50;;;;;13.33;37.53;99796.28;5012956;28;11695;-79
2022/12/21 10:06:18;;;;;;;;;112.00;98.25;;;;;13.30;37.79;99793.63;5025628;28;12803;-78
2022/12/21 10:09:06;;;;;;;;;124.50;111.00;;;;;13.39;37.98;99791.84;5009614;28;11591;-78
2022/12/21 10:11:48;;;;;;;;;127.25;116.00;;;;;13.43;37.35;99797.91;4992454;28;11537;-77
2022/12/21 10:14:29;;;;;;;;;117.50;106.25;;;;;13.43;37.84;99790.06;5024931;28;11589;-79
2022/12/21 10:17:07;;;;;;;;;113.00;104.75;;;;;13.53;37.27;99785.59;5008315;28;11597;-79
2022/12/21 10:20:03;;;;;;;;;117.75;105.00;;;;;13.54;37.07;99788.22;4954402;28;12496;-78
2022/12/21 10:22:35;;;;;;;;;122.50;111.75;;;;;13.55;37.10;99782.09;5027012;28;11655;-80
2022/12/21 10:25:15;;;;;;;;;120.75;110.50;;;;;13.73;37.35;99778.44;5005740;28;11727;-81
2022/12/21 10:27:49;;;;;;;;;110.00;98.00;;;;;13.74;37.08;99777.56;4988992;28;11612;-79
2022/12/21 10:30:18;;;;;;;;;93.25;83.75;;;;;13.78;37.03;99773.13;4991756;28;11556;-77
2022/12/21 10:32:50;;;;;;;;;107.75;100.50;;;;;13.88;36.79;99771.31;4992057;28;11544;-79
2022/12/21 10:35:22;;;;;;;;;107.25;96.50;;;;;13.93;36.63;99767.75;4992356;28;11388;-81
2022/12/21 10:37:54;;;;;;;;;111.75;100.25;;;;;14.01;36.36;99773.78;5015183;28;11574;-81
2022/12/21 10:40:27;;;;;;;;;111.75;101.00;;;;;14.15;36.55;99763.13;5031546;28;11644;-80
2022/12/21 10:42:57;;;;;;;;;106.00;100.25;;;;;14.15;36.63;99765.75;5048111;28;12478;-79
2022/12/21 10:45:27;;;;;;;;;109.25;101.50;;;;;14.13;36.56;99757.03;5064650;28;11758;-78
2022/12/21 10:47:55;;;;;;;;;116.50;106.00;;;;;14.20;35.94;99755.22;5032305;28;12286;-77
2022/12/21 10:50:28;;;;;;;;;100.75;97.75;;;;;14.31;36.16;99753.34;5049037;28;11720;-77
2022/12/21 10:52:58;;;;;;;;;101.50;94.50;;;;;14.42;35.62;99751.44;5032695;28;11524;-78
2022/12/21 10:55:32;;;;;;;;;111.50;95.00;;;;;14.49;35.79;99738.25;5015297;28;11603;-80
2022/12/21 10:58:13;;;;;;;;;102.00;89.25;;;;;14.57;35.47;99726.78;5031566;28;11740;-80
2022/12/21 11:00:50;;;;;;;;;108.75;97.50;;;;;14.57;35.47;99731.16;5027318;28;11304;-78
2022/12/21 11:03:27;;;;;;;;;97.75;93.75;;;;;14.59;35.25;99725.00;5042656;28;11719;-80
2022/12/21 11:05:56;;;;;;;;;101.50;93.25;;;;;14.53;35.30;99732.91;5015358;28;11782;-79
2022/12/21 11:08:28;;;;;;;;;109.50;97.00;;;;;14.69;35.13;99723.13;5031726;28;12375;-80
2022/12/21 11:11:01;;;;;;;;;98.25;90.75;;;;;14.81;35.27;99724.69;4956082;28;12299;-80
2022/12/21 11:13:31;;;;;;;;;99.75;90.25;;;;;14.88;34.91;99720.22;4972747;28;11239;-79
2022/12/21 11:16:03;;;;;;;;;110.50;99.25;;;;;14.99;35.03;99707.78;4972344;28;11582;-80
2022/12/21 11:18:44;;;;;;;;;102.00;92.00;;;;;15.17;34.53;99712.72;4972728;28;11647;-80
2022/12/21 11:21:22;;;;;;;;;110.00;98.25;;;;;14.99;34.39;99706.03;4972751;28;12436;-78
2022/12/21 11:23:56;;;;;;;;;106.25;96.25;;;;;15.14;34.43;99704.91;4972468;28;11729;-81
2022/12/21 11:26:30;;;;;;;;;92.50;83.00;;;;;15.14;34.32;99704.03;4956209;28;11594;-78
2022/12/21 11:29:06;;;;;;;;;106.75;92.00;;;;;15.25;34.55;99706.47;4972400;28;11379;-78
2022/12/21 11:31:36;;;;;;;;;109.75;99.25;;;;;15.23;34.57;99693.38;4973180;28;11339;-78
2022/12/21 11:34:32;;;;;;;;;99.00;89.75;;;;;15.39;33.92;99702.72;4991956;28;11561;-79
2022/12/21 11:37:03;;;;;;;;;93.50;83.25;;;;;15.26;34.32;99700.34;4881365;29;11278;-78
2022/12/21 11:39:47;;;;;;;;;86.25;71.75;;;;;15.30;34.23;99702.03;4891723;29;10955;-79
2022/12/21 11:42:18;;;;;;;;;91.00;81.50;;;;;15.26;34.25;99701.19;4876897;29;10618;-79
2022/12/21 11:44:49;;;;;;;;;92.75;82.00;;;;;15.23;34.09;99698.63;4910861;29;10761;-79
2022/12/21 11:47:36;;;;;;;;;85.75;68.50;;;;;15.31;34.01;99693.22;4895058;29;10659;-79
2022/12/21 11:50:20;;;;;;;;;87.25;74.50;;;;;15.27;34.30;99696.81;4968263;28;10974;-80
2022/12/21 11:53:21;;;;;;;;;88.75;77.00;;;;;15.33;34.65;99691.44;4968129;28;10640;-79
2022/12/21 11:56:09;;;;;;;;;85.50;72.00;;;;;15.29;34.61;99698.53;4929513;29;10851;-78